Melissa Lynn — WDI5512 — position and weather

sailwx.info

Track history (hours):
 
Tides and Currents Weather Stations Pressure Air Temp Water Temp Dewpoint Dewpoint Depression Visibility Wind Speed Wind Dir Waves Ship Positions

Melissa Lynn

Owner: Titan Marine Towing LLC, Corpus Christi, TX. More information available from US FCC via Universal Licensing System and Coast Guard Vessel Documentation Center.

Last reported at 2017-Oct-14 14:16 UTC. Time now 2017-Oct-20 05:11 UTC.
Position N 30°00' W 093°57'.

; draft 3 m.

Type: Tow > 200 m length. MMSI: 367709340.

Date/timePositionNaut miles runAvg speedWind from/ knotsBaromVisibWave heightAir tempDewpointWater temp
2017-Oct-14 14:16N 30°00' W 093°57'1 4.9
2017-Oct-14 14:00N 30°01' W 093°59'1 0.0
2017-Oct-13 08:42N 30°01' W 093°59'0 0.0
2017-Oct-13 08:30N 30°01' W 093°59'0 0.0
2017-Oct-13 07:58N 30°01' W 093°59'0 0.0
2017-Oct-12 05:02N 30°01' W 093°59'0 0.0
2017-Oct-12 04:50N 30°01' W 093°59'0 0.0
2017-Oct-12 02:55N 30°01' W 093°59'55 1.2
2017-Oct-10 05:16N 29°33' W 094°54'2 7.7
2017-Oct-10 05:00N 29°34' W 094°56'4 7.5
2017-Oct-10 04:30N 29°38' W 094°58'4 7.7
2017-Oct-10 04:00N 29°41' W 094°59'7 0.2
2017-Oct-08 15:02N 29°46' W 095°05'1 8.5
2017-Oct-08 14:54N 29°45' W 095°04'3 8.1
2017-Oct-08 14:30N 29°43' W 095°01'4 7.7
2017-Oct-08 14:00N 29°40' W 094°59'5 9.1
2017-Oct-08 13:30N 29°36' W 094°57'5 9.2
2017-Oct-08 13:00N 29°32' W 094°54'  
Track history (hours):
 
Tides and Currents Weather Stations Pressure Air Temp Water Temp Dewpoint Dewpoint Depression Visibility Wind Speed Wind Dir Waves Ship Positions

Melissa Lynn

Owner: Titan Marine Towing LLC, Corpus Christi, TX. More information available from US FCC via Universal Licensing System and Coast Guard Vessel Documentation Center.

Last reported at 2017-Oct-14 14:16 UTC. Time now 2017-Oct-20 05:11 UTC.
Position N 30°00' W 093°57'.

; draft 3 m.

Type: Tow > 200 m length. MMSI: 367709340.

Date/timePositionNaut miles runAvg speedWind from/ knotsBaromVisibWave heightAir tempDewpointWater temp
2017-Oct-14 14:16N 30°00' W 093°57'1 4.9
2017-Oct-14 14:00N 30°01' W 093°59'1 0.0
2017-Oct-13 08:42N 30°01' W 093°59'0 0.0
2017-Oct-13 08:30N 30°01' W 093°59'0 0.0
2017-Oct-13 07:58N 30°01' W 093°59'0 0.0
2017-Oct-12 05:02N 30°01' W 093°59'0 0.0
2017-Oct-12 04:50N 30°01' W 093°59'0 0.0
2017-Oct-12 02:55N 30°01' W 093°59'55 1.2
2017-Oct-10 05:16N 29°33' W 094°54'2 7.7
2017-Oct-10 05:00N 29°34' W 094°56'4 7.5
2017-Oct-10 04:30N 29°38' W 094°58'4 7.7
2017-Oct-10 04:00N 29°41' W 094°59'7 0.2
2017-Oct-08 15:02N 29°46' W 095°05'1 8.5
2017-Oct-08 14:54N 29°45' W 095°04'3 8.1
2017-Oct-08 14:30N 29°43' W 095°01'4 7.7
2017-Oct-08 14:00N 29°40' W 094°59'5 9.1
2017-Oct-08 13:30N 29°36' W 094°57'5 9.2
2017-Oct-08 13:00N 29°32' W 094°54'  

Dump ship's entire track history